Time;durP1;ratioP1;P1;durP2;ratioP2;P2;SDS_P1;SDS_P2;PMS_P1;PMS_P2;Temp;Humidity;BMP_temperature;BMP_pressure;BME280_temperature;BME280_humidity;BME280_pressure;Samples;Min_cycle;Max_cycle;Signal;HPM_P1;HPM_P2
2023/01/31 00:02:31;;;;;;;20.83;5.33;;;4.80;99.90;;;;;;5116699;28;20481;-72
2023/01/31 00:04:59;;;;;;;17.57;4.87;;;4.80;99.90;;;;;;5117185;28;20451;-72
2023/01/31 00:07:27;;;;;;;19.03;4.80;;;4.70;99.90;;;;;;5098246;28;21084;-72
2023/01/31 00:09:55;;;;;;;20.40;5.17;;;4.70;99.90;;;;;;5116813;28;20538;-72
2023/01/31 00:12:23;;;;;;;16.50;5.43;;;4.70;99.90;;;;;;5098242;28;20439;-72
2023/01/31 00:14:51;;;;;;;18.93;5.07;;;4.70;99.90;;;;;;5116713;28;20447;-73
2023/01/31 00:17:20;;;;;;;19.90;5.77;;;4.70;99.90;;;;;;5097939;28;20462;-72
2023/01/31 00:19:49;;;;;;;13.13;4.57;;;4.60;99.90;;;;;;5098307;28;20455;-71
2023/01/31 00:22:17;;;;;;;16.80;5.90;;;4.60;99.90;;;;;;5098020;28;20454;-72
2023/01/31 00:24:45;;;;;;;19.80;5.67;;;4.60;99.90;;;;;;5116239;28;20524;-72
2023/01/31 00:27:13;;;;;;;19.47;6.30;;;4.50;99.90;;;;;;5116131;28;20450;-72
2023/01/31 00:29:41;;;;;;;17.10;4.63;;;4.50;99.90;;;;;;5116213;28;20435;-72
2023/01/31 00:32:09;;;;;;;22.43;5.07;;;4.50;99.90;;;;;;5097884;28;20957;-71
2023/01/31 00:34:38;;;;;;;16.83;5.17;;;4.50;99.90;;;;;;5097846;28;20942;-70
2023/01/31 00:37:07;;;;;;;15.97;5.10;;;4.50;99.90;;;;;;5115979;28;20889;-72
2023/01/31 00:39:36;;;;;;;14.57;4.70;;;4.40;99.90;;;;;;5097740;28;20447;-73
2023/01/31 00:42:04;;;;;;;22.33;8.23;;;4.40;99.90;;;;;;5116197;28;20436;-72
2023/01/31 00:44:32;;;;;;;22.50;5.80;;;4.40;99.90;;;;;;5115785;28;20467;-72
2023/01/31 00:47:01;;;;;;;20.17;6.00;;;4.40;99.90;;;;;;5115739;28;21007;-72
2023/01/31 00:49:29;;;;;;;25.07;5.37;;;4.40;99.90;;;;;;5115775;28;20440;-72
2023/01/31 00:51:58;;;;;;;26.27;6.70;;;4.50;99.90;;;;;;5115752;28;20435;-72
2023/01/31 00:54:27;;;;;;;22.57;6.10;;;4.50;99.90;;;;;;5115692;28;20435;-72
2023/01/31 00:56:56;;;;;;;19.00;6.13;;;4.50;99.90;;;;;;5097336;28;20431;-72
2023/01/31 00:59:24;;;;;;;22.23;6.77;;;4.50;99.90;;;;;;5115492;28;20443;-72
2023/01/31 01:01:53;;;;;;;17.50;5.00;;;4.50;99.90;;;;;;5097463;28;20531;-72
2023/01/31 01:04:21;;;;;;;26.03;6.47;;;4.50;99.90;;;;;;5115469;28;20495;-72
2023/01/31 01:06:51;;;;;;;16.50;4.70;;;4.60;99.90;;;;;;5097239;28;20428;-72
2023/01/31 01:09:21;;;;;;;15.70;4.77;;;4.60;99.90;;;;;;5097122;28;20818;-71
2023/01/31 01:11:51;;;;;;;14.67;4.23;;;4.60;99.90;;;;;;5097138;28;20468;-72
2023/01/31 01:14:19;;;;;;;18.10;3.73;;;4.60;99.90;;;;;;5097005;28;20538;-72
2023/01/31 01:16:47;;;;;;;18.17;4.37;;;4.60;99.90;;;;;;5097286;28;20899;-71
2023/01/31 01:19:18;;;;;;;11.37;4.10;;;4.70;99.90;;;;;;5096829;28;20562;-71
2023/01/31 01:21:47;;;;;;;14.87;4.00;;;4.70;99.90;;;;;;5096935;28;20437;-71
2023/01/31 01:24:18;;;;;;;16.10;4.80;;;4.70;99.90;;;;;;5096765;28;20467;-72
2023/01/31 01:26:47;;;;;;;13.10;4.40;;;4.70;99.90;;;;;;5096835;28;20514;-72
2023/01/31 01:29:17;;;;;;;12.00;4.10;;;4.70;99.90;;;;;;5103107;27;20458;-72
2023/01/31 01:31:45;;;;;;;12.80;3.87;;;4.80;99.90;;;;;;5135773;27;20430;-71
2023/01/31 01:34:15;;;;;;;17.50;5.03;;;4.80;99.90;;;;;;5117032;27;20829;-72
2023/01/31 01:36:44;;;;;;;13.20;4.43;;;4.80;99.90;;;;;;5117013;27;20447;-71
2023/01/31 01:39:16;;;;;;;14.30;4.37;;;4.70;99.90;;;;;;5135289;27;20483;-71
2023/01/31 01:41:45;;;;;;;18.03;3.80;;;4.70;99.90;;;;;;5116935;27;20464;-71
2023/01/31 01:44:59;;;;;;;13.20;4.10;;;4.70;99.90;;;;;;5116766;27;20466;-72
2023/01/31 01:47:36;;;;;;;16.93;4.90;;;4.70;99.90;;;;;;5087133;27;20991;-72
2023/01/31 01:50:11;;;;;;;12.83;3.60;;;4.70;99.90;;;;;;5135277;27;20429;-71
2023/01/31 01:52:43;;;;;;;19.23;5.97;;;4.70;99.90;;;;;;5116795;27;20433;-72
2023/01/31 01:55:16;;;;;;;13.50;3.97;;;4.60;99.90;;;;;;5135391;27;20442;-72
2023/01/31 01:57:49;;;;;;;11.90;4.27;;;4.60;99.90;;;;;;5116493;27;20477;-72
2023/01/31 02:00:22;;;;;;;20.40;5.00;;;4.60;99.90;;;;;;5116614;27;20529;-72
2023/01/31 02:02:58;;;;;;;19.90;6.00;;;4.60;99.90;;;;;;5116590;27;20449;-72
2023/01/31 02:05:30;;;;;;;14.43;4.90;;;4.60;99.90;;;;;;5135111;27;20454;-72
2023/01/31 02:07:59;;;;;;;16.97;5.03;;;4.60;99.90;;;;;;5135109;27;20469;-72
2023/01/31 02:10:32;;;;;;;21.20;5.87;;;4.60;99.90;;;;;;5116395;27;20955;-72
2023/01/31 02:13:01;;;;;;;24.77;5.63;;;4.60;99.90;;;;;;5135306;27;20916;-72
2023/01/31 02:15:29;;;;;;;18.57;4.80;;;4.60;99.90;;;;;;5134716;27;20878;-72
2023/01/31 02:18:00;;;;;;;13.90;4.80;;;4.60;99.90;;;;;;5115789;27;20490;-71
2023/01/31 02:21:11;;;;;;;16.20;5.10;;;4.60;99.90;;;;;;5116253;27;20450;-72
2023/01/31 02:24:08;;;;;;;19.80;5.53;;;4.60;99.90;;;;;;5134558;27;20426;-72
2023/01/31 02:27:23;;;;;;;21.20;4.63;;;4.60;99.90;;;;;;5116094;27;20952;-72
2023/01/31 02:30:13;;;;;;;13.07;5.10;;;4.60;99.90;;;;;;5128507;27;20495;-72
2023/01/31 02:32:53;;;;;;;20.33;5.30;;;4.60;99.90;;;;;;5113807;27;20478;-72
2023/01/31 02:35:32;;;;;;;20.43;6.03;;;4.60;99.90;;;;;;5116407;27;20517;-72
2023/01/31 02:38:16;;;;;;;25.03;5.57;;;4.60;99.90;;;;;;5115996;27;20878;-73
2023/01/31 02:40:51;;;;;;;25.10;5.33;;;4.70;99.90;;;;;;5115931;28;20508;-73
2023/01/31 02:43:25;;;;;;;21.03;5.73;;;4.70;99.90;;;;;;5115893;27;20514;-73
2023/01/31 02:46:00;;;;;;;18.17;5.70;;;4.70;99.90;;;;;;5115759;27;20472;-72
2023/01/31 02:48:39;;;;;;;17.20;5.93;;;4.70;99.90;;;;;;5115783;28;20486;-71
2023/01/31 02:51:13;;;;;;;18.03;4.33;;;4.70;99.90;;;;;;5115887;28;20450;-73
2023/01/31 02:53:48;;;;;;;19.47;4.97;;;4.60;99.90;;;;;;5116164;28;20492;-72
2023/01/31 02:56:22;;;;;;;19.97;5.20;;;4.70;99.90;;;;;;5115813;28;20439;-72
2023/01/31 02:58:56;;;;;;;17.30;4.90;;;4.60;99.90;;;;;;5115620;28;20470;-71
2023/01/31 03:01:28;;;;;;;18.23;5.70;;;4.60;99.90;;;;;;5115719;28;20470;-73
2023/01/31 03:04:02;;;;;;;20.80;5.73;;;4.60;99.90;;;;;;5115694;28;20530;-71
2023/01/31 03:06:58;;;;;;;24.77;6.57;;;4.60;99.90;;;;;;5115680;28;20549;-72
2023/01/31 03:09:38;;;;;;;18.37;5.77;;;4.60;99.90;;;;;;5115619;28;20439;-72
2023/01/31 03:12:21;;;;;;;24.50;6.10;;;4.60;99.90;;;;;;5115672;28;20442;-72
2023/01/31 03:14:59;;;;;;;23.20;5.70;;;4.60;99.90;;;;;;5120783;28;20785;-72
2023/01/31 03:17:37;;;;;;;21.17;5.80;;;4.60;99.90;;;;;;5095081;28;20463;-72
2023/01/31 03:20:11;;;;;;;23.10;5.43;;;4.60;99.90;;;;;;5095402;28;20869;-72
2023/01/31 03:22:42;;;;;;;13.73;4.40;;;4.60;99.90;;;;;;5095198;28;20450;-72
2023/01/31 03:25:13;;;;;;;20.30;4.70;;;4.60;99.90;;;;;;5095047;28;20463;-72
2023/01/31 03:27:51;;;;;;;18.27;4.97;;;4.60;99.90;;;;;;5095355;28;20466;-72
2023/01/31 03:30:26;;;;;;;22.90;5.67;;;4.60;99.90;;;;;;5097753;28;20945;-72
2023/01/31 03:32:59;;;;;;;19.90;5.50;;;4.60;99.90;;;;;;5117295;28;20450;-72
2023/01/31 03:35:31;;;;;;;13.17;4.37;;;4.60;99.90;;;;;;5098990;28;20463;-72
2023/01/31 03:38:06;;;;;;;22.23;5.00;;;4.60;99.90;;;;;;5099090;28;20554;-72
2023/01/31 03:40:38;;;;;;;16.97;6.20;;;4.60;99.90;;;;;;5117460;28;20915;-72
2023/01/31 03:43:16;;;;;;;19.40;5.43;;;4.50;99.90;;;;;;5098896;28;20490;-72
2023/01/31 03:45:50;;;;;;;21.30;5.10;;;4.50;99.90;;;;;;5099038;28;20462;-72
2023/01/31 03:48:23;;;;;;;20.43;4.97;;;4.50;99.90;;;;;;5117236;28;20484;-72
2023/01/31 03:50:57;;;;;;;22.70;4.80;;;4.50;99.90;;;;;;5114423;27;20928;-72
2023/01/31 03:53:32;;;;;;;14.73;5.30;;;4.50;99.90;;;;;;5119042;27;20814;-72
2023/01/31 03:56:04;;;;;;;17.47;5.10;;;4.50;99.90;;;;;;5119048;27;20469;-72
2023/01/31 03:58:38;;;;;;;18.93;5.43;;;4.50;99.90;;;;;;5118818;27;20466;-72
2023/01/31 04:01:10;;;;;;;21.83;5.17;;;4.40;99.90;;;;;;5117692;27;20924;-72
2023/01/31 04:03:41;;;;;;;16.23;6.20;;;4.40;99.90;;;;;;5098427;28;20471;-72
2023/01/31 04:06:12;;;;;;;20.20;4.83;;;4.40;99.90;;;;;;5098285;28;20484;-72
2023/01/31 04:08:42;;;;;;;19.60;5.80;;;4.30;99.90;;;;;;5098309;28;20517;-72
2023/01/31 04:11:12;;;;;;;19.60;6.03;;;4.30;99.90;;;;;;5098262;28;20546;-72
2023/01/31 04:13:42;;;;;;;17.70;4.60;;;4.30;99.90;;;;;;5116821;28;20500;-72
2023/01/31 04:16:10;;;;;;;18.53;5.33;;;4.30;99.90;;;;;;5135026;27;20446;-72
2023/01/31 04:18:38;;;;;;;18.53;5.03;;;4.30;99.90;;;;;;5137013;27;20503;-71
2023/01/31 04:21:06;;;;;;;18.80;5.70;;;4.30;99.90;;;;;;5137203;27;20438;-71
2023/01/31 04:23:36;;;;;;;22.73;5.30;;;4.30;99.90;;;;;;5137100;27;20438;-72
2023/01/31 04:26:04;;;;;;;14.83;4.67;;;4.30;99.90;;;;;;5137024;27;20489;-72
2023/01/31 04:28:32;;;;;;;23.43;5.93;;;4.30;99.90;;;;;;5118199;27;20463;-72
2023/01/31 04:31:00;;;;;;;14.70;4.40;;;4.20;99.90;;;;;;5137021;27;20454;-72
2023/01/31 04:33:29;;;;;;;20.03;6.50;;;4.30;99.90;;;;;;5122699;27;20432;-71
2023/01/31 04:35:57;;;;;;;17.00;5.50;;;4.20;99.90;;;;;;5116210;28;20982;-71
2023/01/31 04:38:25;;;;;;;19.70;4.60;;;4.20;99.90;;;;;;5115918;28;20447;-72
2023/01/31 04:40:55;;;;;;;16.93;4.90;;;4.20;99.90;;;;;;5097304;28;21018;-72
2023/01/31 04:43:23;;;;;;;15.03;5.57;;;4.20;99.90;;;;;;5119652;27;20503;-72
2023/01/31 04:45:51;;;;;;;14.80;5.53;;;4.20;99.90;;;;;;5117943;27;20515;-72
2023/01/31 04:48:19;;;;;;;14.10;5.23;;;4.20;99.90;;;;;;5136926;27;20450;-71
2023/01/31 04:50:47;;;;;;;17.30;5.20;;;4.20;99.90;;;;;;5136656;27;20530;-71
2023/01/31 04:53:15;;;;;;;16.90;4.20;;;4.20;99.90;;;;;;5117855;27;20453;-72
2023/01/31 04:55:44;;;;;;;16.37;4.37;;;4.20;99.90;;;;;;5136232;27;20517;-72
2023/01/31 04:58:13;;;;;;;14.80;4.37;;;4.20;99.90;;;;;;5136183;27;20824;-72
2023/01/31 05:00:43;;;;;;;12.67;3.63;;;4.20;99.90;;;;;;5136320;27;20434;-71
2023/01/31 05:03:12;;;;;;;17.90;5.10;;;4.20;99.90;;;;;;5117784;27;20435;-72
2023/01/31 05:05:40;;;;;;;14.37;4.50;;;4.20;99.90;;;;;;5135992;27;20441;-72
2023/01/31 05:08:08;;;;;;;15.13;4.63;;;4.20;99.90;;;;;;5135944;27;20461;-72
2023/01/31 05:10:36;;;;;;;19.00;4.97;;;4.20;99.90;;;;;;5117562;27;20442;-71
2023/01/31 05:13:04;;;;;;;17.47;4.30;;;4.20;99.90;;;;;;5136286;27;20430;-71
2023/01/31 05:15:34;;;;;;;14.20;4.87;;;4.20;99.90;;;;;;5136206;27;20778;-71
2023/01/31 05:18:03;;;;;;;18.50;5.07;;;4.30;99.90;;;;;;5136090;27;20454;-71
2023/01/31 05:20:35;;;;;;;18.10;4.10;;;4.30;99.90;;;;;;5136275;27;20434;-71
2023/01/31 05:23:03;;;;;;;15.73;4.00;;;4.30;99.90;;;;;;5136040;27;20877;-72
2023/01/31 05:25:32;;;;;;;17.30;4.03;;;4.30;99.90;;;;;;5135590;27;20430;-71
2023/01/31 05:28:00;;;;;;;15.23;4.67;;;4.30;99.90;;;;;;5117191;27;20454;-71
2023/01/31 05:30:28;;;;;;;16.37;5.13;;;4.30;99.90;;;;;;5135855;27;20443;-71
2023/01/31 05:32:58;;;;;;;15.53;4.27;;;4.30;99.90;;;;;;5117138;27;20436;-71
2023/01/31 05:35:26;;;;;;;11.60;4.20;;;4.30;99.90;;;;;;5117058;27;20506;-71
2023/01/31 05:37:54;;;;;;;17.07;4.40;;;4.30;99.90;;;;;;5135329;27;20443;-71
2023/01/31 05:40:23;;;;;;;15.37;4.57;;;4.30;99.90;;;;;;5135607;27;20441;-72
2023/01/31 05:42:55;;;;;;;12.23;3.80;;;4.30;99.90;;;;;;5135338;27;20430;-71
2023/01/31 05:45:23;;;;;;;17.37;4.97;;;4.40;99.90;;;;;;5113815;28;20452;-71
2023/01/31 05:47:51;;;;;;;16.90;5.30;;;4.40;99.90;;;;;;5096368;28;20846;-72
2023/01/31 05:50:21;;;;;;;16.33;4.53;;;4.40;99.90;;;;;;5114648;28;20443;-72
2023/01/31 05:52:52;;;;;;;17.10;5.80;;;4.40;99.90;;;;;;5113824;28;20443;-72
2023/01/31 05:55:20;;;;;;;15.33;4.27;;;4.40;99.90;;;;;;5095902;28;20450;-72
2023/01/31 05:57:49;;;;;;;12.43;4.00;;;4.40;99.90;;;;;;5113962;27;20475;-72
2023/01/31 06:00:18;;;;;;;14.30;4.60;;;4.50;99.90;;;;;;5132675;27;20447;-71
2023/01/31 06:02:46;;;;;;;11.60;5.13;;;4.50;99.90;;;;;;5095872;28;20865;-72
2023/01/31 06:05:15;;;;;;;14.30;5.23;;;4.50;99.90;;;;;;5114414;28;20427;-71
2023/01/31 06:07:45;;;;;;;16.27;4.70;;;4.50;99.90;;;;;;5114089;28;20485;-72
2023/01/31 06:10:14;;;;;;;12.40;5.00;;;4.50;99.90;;;;;;5126993;27;20434;-72
2023/01/31 06:12:42;;;;;;;20.30;5.80;;;4.50;99.90;;;;;;5134751;27;20492;-72
2023/01/31 06:15:11;;;;;;;15.57;4.70;;;4.60;99.90;;;;;;5134766;27;20433;-72
2023/01/31 06:17:39;;;;;;;14.57;5.30;;;4.60;99.90;;;;;;5134508;27;20863;-72
2023/01/31 06:20:08;;;;;;;13.33;4.90;;;4.60;99.90;;;;;;5116328;27;20442;-72
2023/01/31 06:22:36;;;;;;;14.17;5.07;;;4.60;99.90;;;;;;5134598;27;20443;-72
2023/01/31 06:25:07;;;;;;;16.13;5.00;;;4.60;99.90;;;;;;5116225;27;20446;-72
2023/01/31 06:27:36;;;;;;;19.53;5.97;;;4.60;99.90;;;;;;5134431;27;20976;-71
2023/01/31 06:30:04;;;;;;;15.33;5.10;;;4.60;99.90;;;;;;5116146;27;20442;-72
2023/01/31 06:32:33;;;;;;;17.03;6.00;;;4.60;99.90;;;;;;5135055;27;20440;-72
2023/01/31 06:35:01;;;;;;;16.77;6.03;;;4.60;99.90;;;;;;5134435;27;20438;-72
2023/01/31 06:37:29;;;;;;;14.30;5.03;;;4.60;99.90;;;;;;5134213;27;20469;-72
2023/01/31 06:39:58;;;;;;;21.53;6.70;;;4.70;99.90;;;;;;5134349;27;20797;-73
2023/01/31 06:42:27;;;;;;;19.20;8.53;;;4.70;99.90;;;;;;5116066;27;20809;-72
2023/01/31 06:44:55;;;;;;;18.80;8.23;;;4.70;99.90;;;;;;5116036;27;20447;-72
2023/01/31 06:47:23;;;;;;;21.67;7.30;;;4.70;99.90;;;;;;5115821;27;20478;-72
2023/01/31 06:49:51;;;;;;;15.07;6.60;;;4.70;99.90;;;;;;5134584;27;20438;-72
2023/01/31 06:52:19;;;;;;;17.30;7.07;;;4.70;99.90;;;;;;5122314;28;20512;-72
2023/01/31 06:54:47;;;;;;;21.90;7.77;;;4.70;99.90;;;;;;5113680;28;20439;-72
2023/01/31 06:57:15;;;;;;;15.70;7.07;;;4.70;99.90;;;;;;5113397;28;20443;-72
2023/01/31 06:59:45;;;;;;;18.53;9.00;;;4.80;99.90;;;;;;5113887;28;20412;-72
2023/01/31 07:02:13;;;;;;;14.87;8.37;;;4.80;99.90;;;;;;5094372;28;20455;-72
2023/01/31 07:04:41;;;;;;;17.40;8.07;;;4.80;99.90;;;;;;5116189;28;20431;-72
2023/01/31 07:07:09;;;;;;;15.63;8.13;;;4.80;99.90;;;;;;5117626;28;20462;-72
2023/01/31 07:09:37;;;;;;;13.83;8.03;;;4.80;99.90;;;;;;5118272;28;20488;-72
2023/01/31 07:12:05;;;;;;;14.20;8.60;;;4.80;99.90;;;;;;5117729;28;20942;-72
2023/01/31 07:14:33;;;;;;;17.80;7.80;;;4.80;99.90;;;;;;5099349;28;20447;-71
2023/01/31 07:17:03;;;;;;;18.67;7.83;;;4.80;99.90;;;;;;5099225;28;20530;-71
2023/01/31 07:19:31;;;;;;;18.37;8.30;;;4.80;99.90;;;;;;5099200;28;20867;-72
2023/01/31 07:22:00;;;;;;;19.60;8.67;;;4.80;99.90;;;;;;5117556;28;20439;-72
2023/01/31 07:24:28;;;;;;;20.63;9.40;;;4.80;99.90;;;;;;5117481;28;20485;-72
2023/01/31 07:26:57;;;;;;;23.20;9.47;;;4.90;99.90;;;;;;5099186;28;20470;-73
2023/01/31 07:29:25;;;;;;;20.23;8.50;;;4.90;99.90;;;;;;5099193;28;20443;-72
2023/01/31 07:31:55;;;;;;;16.00;8.60;;;4.90;99.90;;;;;;5117486;28;20436;-72
2023/01/31 07:34:24;;;;;;;17.83;9.23;;;4.90;99.90;;;;;;5117641;28;20427;-70
2023/01/31 07:36:52;;;;;;;19.93;9.33;;;4.90;99.90;;;;;;5117336;28;20435;-71
2023/01/31 07:39:20;;;;;;;19.70;10.03;;;4.90;99.90;;;;;;5117481;28;20508;-71
2023/01/31 07:41:48;;;;;;;21.10;9.80;;;5.00;99.90;;;;;;5117584;28;20439;-71
2023/01/31 07:44:17;;;;;;;20.23;9.50;;;5.00;99.90;;;;;;5117128;28;20467;-72
2023/01/31 07:46:45;;;;;;;16.13;9.57;;;5.00;99.90;;;;;;5117345;28;20925;-72
2023/01/31 07:49:13;;;;;;;23.47;10.23;;;5.00;99.90;;;;;;5117295;28;20467;-72
2023/01/31 07:51:43;;;;;;;16.97;10.10;;;5.00;99.90;;;;;;5117002;28;20921;-72
2023/01/31 07:54:11;;;;;;;22.13;11.60;;;5.00;99.90;;;;;;5098700;28;20534;-72
2023/01/31 07:56:40;;;;;;;18.87;11.90;;;5.10;99.90;;;;;;5116827;28;20432;-72
2023/01/31 07:59:08;;;;;;;19.00;11.43;;;5.10;99.90;;;;;;5116648;28;20455;-72
2023/01/31 08:04:21;;;;;;;23.50;11.70;;;5.10;99.90;;;;;;5117109;28;20427;-72
2023/01/31 08:06:54;;;;;;;21.57;11.70;;;5.20;99.90;;;;;;5116759;28;20474;-72
2023/01/31 08:09:23;;;;;;;23.43;12.33;;;5.20;99.90;;;;;;5116924;28;20558;-72
2023/01/31 08:11:52;;;;;;;19.10;12.80;;;5.20;99.90;;;;;;5117135;28;20431;-72
2023/01/31 08:14:24;;;;;;;21.13;12.63;;;5.20;99.90;;;;;;5116480;28;20526;-72
2023/01/31 08:16:52;;;;;;;24.50;13.30;;;5.30;99.90;;;;;;5115792;28;20503;-71
2023/01/31 08:19:20;;;;;;;26.97;14.03;;;5.30;99.90;;;;;;5098084;28;20471;-73
2023/01/31 08:21:49;;;;;;;21.93;13.50;;;5.30;99.90;;;;;;5098192;28;20531;-73
2023/01/31 08:24:18;;;;;;;31.03;15.30;;;5.30;99.90;;;;;;5116318;28;20444;-73
2023/01/31 08:26:46;;;;;;;20.83;15.40;;;5.40;99.90;;;;;;5116307;28;20439;-72
2023/01/31 08:29:15;;;;;;;25.77;14.83;;;5.40;99.90;;;;;;5116354;28;20491;-72
2023/01/31 08:31:43;;;;;;;25.40;15.00;;;5.40;99.90;;;;;;5098294;28;20843;-72
2023/01/31 08:34:11;;;;;;;23.17;15.03;;;5.40;99.90;;;;;;5116429;28;20475;-72
2023/01/31 08:36:39;;;;;;;22.80;14.60;;;5.40;99.90;;;;;;5116429;28;20800;-72
2023/01/31 08:39:07;;;;;;;28.03;15.13;;;5.40;99.90;;;;;;5115972;28;20512;-72
2023/01/31 08:41:38;;;;;;;27.33;16.27;;;5.50;99.90;;;;;;5116181;28;20993;-72
2023/01/31 08:44:06;;;;;;;22.97;15.77;;;5.50;99.90;;;;;;5115981;28;20430;-72
2023/01/31 08:46:36;;;;;;;20.97;16.10;;;5.50;99.90;;;;;;5097718;28;20446;-72
2023/01/31 08:49:06;;;;;;;25.50;15.80;;;5.50;99.90;;;;;;5097505;28;20841;-72
2023/01/31 08:51:36;;;;;;;29.97;16.80;;;5.50;99.90;;;;;;5115861;28;20514;-72
2023/01/31 08:54:04;;;;;;;24.40;16.93;;;5.60;99.90;;;;;;5116343;28;20435;-72
2023/01/31 08:56:32;;;;;;;23.17;17.17;;;5.60;99.90;;;;;;5115690;28;20938;-72
2023/01/31 08:59:02;;;;;;;26.70;17.07;;;5.60;99.90;;;;;;5115688;28;20465;-73
2023/01/31 09:01:31;;;;;;;26.10;17.10;;;5.60;99.90;;;;;;5115598;28;20459;-72
2023/01/31 09:03:59;;;;;;;21.20;18.50;;;5.60;99.90;;;;;;5115884;28;20451;-72
2023/01/31 09:06:27;;;;;;;25.27;18.27;;;5.70;99.90;;;;;;5115950;28;20434;-72
2023/01/31 09:08:57;;;;;;;28.73;17.90;;;5.70;99.90;;;;;;5115464;28;20477;-72
2023/01/31 09:11:29;;;;;;;23.57;18.27;;;5.70;99.90;;;;;;5115769;28;20438;-72
2023/01/31 09:13:58;;;;;;;25.80;19.93;;;5.70;99.90;;;;;;5097213;28;20439;-72
2023/01/31 09:16:27;;;;;;;24.37;18.80;;;5.80;99.90;;;;;;5115470;28;20436;-72
2023/01/31 09:18:56;;;;;;;26.50;18.20;;;5.80;99.90;;;;;;5115587;28;20541;-72
2023/01/31 09:21:25;;;;;;;23.30;18.30;;;5.80;99.90;;;;;;5097021;28;20443;-72
2023/01/31 09:23:58;;;;;;;25.37;19.30;;;5.80;99.90;;;;;;5096879;28;20875;-72
2023/01/31 09:26:26;;;;;;;25.50;18.90;;;5.80;99.90;;;;;;5115523;28;20426;-72
2023/01/31 09:28:54;;;;;;;25.60;18.50;;;5.80;99.90;;;;;;5114168;28;20478;-72
2023/01/31 09:31:23;;;;;;;23.50;18.53;;;5.80;99.90;;;;;;5115282;28;20761;-72
2023/01/31 09:33:53;;;;;;;27.37;18.90;;;5.90;99.90;;;;;;5096736;28;20447;-72
2023/01/31 09:36:23;;;;;;;29.70;19.90;;;5.90;99.90;;;;;;5097230;28;20956;-72
2023/01/31 09:38:54;;;;;;;23.90;17.80;;;5.90;99.90;;;;;;5114939;28;20887;-72
2023/01/31 09:41:28;;;;;;;27.63;18.70;;;5.90;99.90;;;;;;5114915;28;20514;-72
2023/01/31 09:44:01;;;;;;;23.83;19.50;;;5.90;99.90;;;;;;5114865;28;20882;-72
2023/01/31 09:46:35;;;;;;;24.13;18.10;;;5.90;99.90;;;;;;5114978;28;20470;-72
2023/01/31 09:49:09;;;;;;;24.20;17.90;;;5.90;99.90;;;;;;5114635;28;20470;-72
2023/01/31 09:51:39;;;;;;;24.70;20.70;;;5.90;99.90;;;;;;5114685;28;20416;-72
2023/01/31 09:54:18;;;;;;;32.70;19.57;;;5.90;99.90;;;;;;5114557;28;20454;-72
2023/01/31 09:56:54;;;;;;;26.30;18.53;;;5.90;99.90;;;;;;5114840;28;20418;-72
2023/01/31 09:59:26;;;;;;;32.20;20.07;;;5.90;99.90;;;;;;5114610;28;20512;-72
2023/01/31 10:02:03;;;;;;;26.47;18.67;;;6.00;99.90;;;;;;5096376;28;20438;-72
2023/01/31 10:04:57;;;;;;;26.40;20.00;;;6.00;99.90;;;;;;5115029;28;20510;-72
2023/01/31 10:07:29;;;;;;;27.60;19.57;;;6.00;99.90;;;;;;5096088;28;20457;-72
2023/01/31 10:10:03;;;;;;;27.57;19.17;;;6.00;99.90;;;;;;5114372;28;20458;-72
2023/01/31 10:12:39;;;;;;;27.43;19.67;;;6.00;99.90;;;;;;5114381;28;20915;-72
2023/01/31 10:15:17;;;;;;;25.77;19.70;;;6.00;99.90;;;;;;5096003;28;20810;-72
2023/01/31 10:17:49;;;;;;;26.27;20.23;;;6.00;99.90;;;;;;5114335;28;20451;-72
2023/01/31 10:20:33;;;;;;;28.63;21.53;;;6.00;99.90;;;;;;5095972;28;20439;-72
2023/01/31 10:23:07;;;;;;;29.30;19.67;;;6.00;99.90;;;;;;5114211;28;20412;-72
2023/01/31 10:25:43;;;;;;;24.60;20.67;;;6.00;99.90;;;;;;5095868;28;20447;-72
2023/01/31 10:28:15;;;;;;;24.50;20.90;;;6.00;99.90;;;;;;5114203;28;20454;-72
2023/01/31 10:30:48;;;;;;;28.07;21.50;;;6.00;99.90;;;;;;5114326;28;20515;-72
2023/01/31 10:33:25;;;;;;;27.27;21.13;;;6.00;99.90;;;;;;5095789;28;20439;-73
2023/01/31 10:35:57;;;;;;;28.10;19.70;;;6.00;99.90;;;;;;5114300;28;20423;-72
2023/01/31 10:38:30;;;;;;;28.17;19.70;;;6.10;99.90;;;;;;5114211;28;20530;-72
2023/01/31 10:41:06;;;;;;;28.07;21.33;;;6.10;99.90;;;;;;5114260;28;20516;-72
2023/01/31 10:43:39;;;;;;;32.30;20.07;;;6.10;99.90;;;;;;5114186;28;20431;-72
2023/01/31 10:46:11;;;;;;;26.83;21.07;;;6.10;99.90;;;;;;5114011;28;20455;-72
2023/01/31 10:48:40;;;;;;;25.10;18.47;;;6.10;99.90;;;;;;5114039;28;21016;-72
2023/01/31 10:51:25;;;;;;;23.13;17.30;;;6.10;99.90;;;;;;5113845;28;20442;-72
2023/01/31 10:54:11;;;;;;;26.40;17.93;;;6.10;99.90;;;;;;5113999;28;20826;-72
2023/01/31 10:56:43;;;;;;;26.50;17.77;;;6.20;99.90;;;;;;5113989;28;20449;-72
2023/01/31 10:59:16;;;;;;;25.13;16.00;;;6.20;99.90;;;;;;5113781;28;20521;-72
2023/01/31 11:01:44;;;;;;;27.87;17.33;;;6.20;99.90;;;;;;5113579;28;20436;-72
2023/01/31 11:04:24;;;;;;;23.17;15.73;;;6.20;99.90;;;;;;5095451;28;20447;-72
2023/01/31 11:06:54;;;;;;;23.27;15.90;;;6.20;99.90;;;;;;5113988;28;20431;-72
2023/01/31 11:09:24;;;;;;;23.50;14.33;;;6.30;99.90;;;;;;5113996;28;20468;-71
2023/01/31 11:11:57;;;;;;;24.27;16.90;;;6.30;99.90;;;;;;5113599;28;20839;-72
2023/01/31 11:14:25;;;;;;;24.17;14.83;;;6.30;99.90;;;;;;5114156;28;20422;-73
2023/01/31 11:16:59;;;;;;;23.10;15.30;;;6.30;99.90;;;;;;5113563;28;20436;-72
2023/01/31 11:19:34;;;;;;;21.93;15.63;;;6.30;99.90;;;;;;5113875;28;20417;-72
2023/01/31 11:22:04;;;;;;;21.70;14.37;;;6.40;99.90;;;;;;5113770;28;20417;-72
2023/01/31 11:24:34;;;;;;;18.60;14.63;;;6.40;99.90;;;;;;5114410;28;20462;-73
2023/01/31 11:27:06;;;;;;;21.23;14.23;;;6.40;99.90;;;;;;5113623;28;20433;-72
2023/01/31 11:29:38;;;;;;;21.57;14.43;;;6.40;99.90;;;;;;5113685;28;20809;-73
2023/01/31 11:32:17;;;;;;;20.67;13.57;;;6.50;99.90;;;;;;5095180;28;20935;-73
2023/01/31 11:34:56;;;;;;;19.30;14.27;;;6.50;99.90;;;;;;5095118;28;20489;-73
2023/01/31 11:37:28;;;;;;;23.90;15.07;;;6.50;99.90;;;;;;5113311;28;20491;-73
2023/01/31 11:39:58;;;;;;;22.80;13.63;;;6.50;99.90;;;;;;5095095;28;20467;-72
2023/01/31 11:42:27;;;;;;;20.30;13.70;;;6.50;99.90;;;;;;5095155;28;20449;-73
2023/01/31 11:45:01;;;;;;;18.33;13.20;;;6.50;99.90;;;;;;5113532;28;20440;-73
2023/01/31 11:47:40;;;;;;;24.97;15.37;;;6.60;99.90;;;;;;5094987;28;20473;-73
2023/01/31 11:50:19;;;;;;;20.17;14.70;;;6.60;99.90;;;;;;5094908;28;20462;-73
2023/01/31 11:52:55;;;;;;;18.60;13.33;;;6.60;99.90;;;;;;5098733;28;20804;-73
2023/01/31 11:55:23;;;;;;;15.37;11.93;;;6.60;99.90;;;;;;5117506;28;20420;-73
2023/01/31 11:57:57;;;;;;;17.37;12.67;;;6.60;99.90;;;;;;5098492;28;20496;-73
2023/01/31 12:00:27;;;;;;;19.13;11.80;;;6.60;99.90;;;;;;5116827;28;20547;-73
2023/01/31 12:03:01;;;;;;;15.37;10.97;;;6.60;99.90;;;;;;5098492;28;20946;-73
2023/01/31 12:05:39;;;;;;;17.70;11.17;;;6.70;99.90;;;;;;5117075;28;20425;-73
2023/01/31 12:08:28;;;;;;;16.40;11.00;;;6.70;99.90;;;;;;5098362;28;20466;-73
2023/01/31 12:10:58;;;;;;;16.33;10.20;;;6.70;99.90;;;;;;5116859;28;20490;-74
2023/01/31 12:13:27;;;;;;;15.63;9.73;;;6.70;99.90;;;;;;5116530;28;20437;-73
2023/01/31 12:15:59;;;;;;;12.80;9.57;;;6.70;99.90;;;;;;5098100;28;20824;-74
2023/01/31 12:18:49;;;;;;;17.67;9.90;;;6.70;99.90;;;;;;5116774;28;20455;-74
2023/01/31 12:21:27;;;;;;;13.57;9.33;;;6.70;99.90;;;;;;5116450;28;20413;-74
2023/01/31 12:24:07;;;;;;;10.10;8.90;;;6.80;99.90;;;;;;5116670;28;20429;-74
2023/01/31 12:26:43;;;;;;;13.10;8.73;;;6.80;99.90;;;;;;5098032;28;20449;-74
2023/01/31 12:29:35;;;;;;;15.57;8.73;;;6.80;99.90;;;;;;5097995;28;20465;-74
2023/01/31 12:32:15;;;;;;;11.80;7.57;;;6.80;99.90;;;;;;5116200;28;20960;-74
2023/01/31 12:35:04;;;;;;;11.53;8.00;;;6.80;99.90;;;;;;5116467;28;20431;-73
2023/01/31 12:37:44;;;;;;;12.93;8.10;;;6.90;99.90;;;;;;5116477;28;20508;-74
2023/01/31 12:40:28;;;;;;;9.97;8.00;;;6.90;99.90;;;;;;5097768;28;20436;-74
2023/01/31 12:43:01;;;;;;;8.73;6.93;;;6.90;99.90;;;;;;5116346;28;20543;-74
2023/01/31 12:45:53;;;;;;;8.70;7.30;;;6.90;99.90;;;;;;5116111;28;20446;-74
2023/01/31 12:48:54;;;;;;;9.90;6.60;;;7.00;99.90;;;;;;5116146;28;20813;-74
2023/01/31 12:51:36;;;;;;;12.43;7.07;;;7.00;99.90;;;;;;5075150;28;20485;-74
2023/01/31 12:54:24;;;;;;;8.00;6.50;;;7.00;99.90;;;;;;5115857;28;20425;-75
2023/01/31 12:57:03;;;;;;;7.77;5.60;;;7.00;99.90;;;;;;5097594;28;20438;-74
2023/01/31 12:59:44;;;;;;;7.60;5.47;;;7.00;99.90;;;;;;5115878;28;20780;-74
2023/01/31 13:02:24;;;;;;;8.23;5.37;;;7.00;99.90;;;;;;5115745;28;20435;-74
2023/01/31 13:04:58;;;;;;;6.80;4.83;;;7.00;99.90;;;;;;5115977;28;20502;-74
2023/01/31 13:07:30;;;;;;;7.70;5.30;;;7.10;99.90;;;;;;5097226;28;20863;-74
2023/01/31 13:10:03;;;;;;;10.43;5.53;;;7.10;99.90;;;;;;5097213;28;20466;-74
2023/01/31 13:12:35;;;;;;;7.00;5.10;;;7.10;99.90;;;;;;5115738;28;20415;-74